createdAt,value
2022-09-10T00:00:43.667Z,99831.72
2022-09-10T00:03:11.647Z,99878.03
2022-09-10T00:05:40.191Z,99867.31
2022-09-10T00:08:09.397Z,99864.50
2022-09-10T00:10:40.487Z,99875.09
2022-09-10T00:13:09.380Z,99872.66
2022-09-10T00:15:40.059Z,99876.09
2022-09-10T00:18:08.980Z,99876.09
2022-09-10T00:20:36.723Z,99889.53
2022-09-10T00:23:04.440Z,99883.28
2022-09-10T00:25:33.477Z,99884.31
2022-09-10T00:28:01.239Z,99886.97
2022-09-10T00:30:28.928Z,99890.19
2022-09-10T00:32:56.635Z,99893.84
2022-09-10T00:35:24.348Z,99902.91
2022-09-10T00:37:52.052Z,99901.09
2022-09-10T00:40:20.044Z,99898.53
2022-09-10T00:42:49.087Z,99899.66
2022-09-10T00:45:20.097Z,99901.91
2022-09-10T00:47:47.840Z,99909.97
2022-09-10T00:50:19.031Z,99905.59
2022-09-10T00:52:47.545Z,99906.72
2022-09-10T00:55:15.276Z,99912.09
2022-09-10T00:57:43.004Z,99912.25
2022-09-10T01:00:13.630Z,99901.50
2022-09-10T01:02:41.329Z,99916.19
2022-09-10T01:05:10.091Z,99911.94
2022-09-10T01:07:37.820Z,99870.97
2022-09-10T01:10:07.748Z,99895.84
2022-09-10T01:12:47.778Z,99908.00
2022-09-10T01:15:22.129Z,99834.28
2022-09-10T01:17:58.934Z,99905.72
2022-09-10T01:20:47.438Z,99900.34
2022-09-10T01:23:53.672Z,99907.59
2022-09-10T01:26:29.316Z,99913.63
2022-09-10T01:29:01.238Z,99902.75
2022-09-10T01:31:31.490Z,99887.09
2022-09-10T01:34:02.455Z,99891.31
2022-09-10T01:36:33.475Z,99907.44
2022-09-10T01:39:01.256Z,99913.50
2022-09-10T01:41:28.955Z,99911.94
2022-09-10T01:43:58.136Z,99904.91
2022-09-10T01:46:31.103Z,99905.19
2022-09-10T01:49:16.058Z,99913.22
2022-09-10T01:51:56.433Z,99903.19
2022-09-10T01:54:33.593Z,99906.72
2022-09-10T01:57:06.581Z,99898.69
2022-09-10T01:59:38.914Z,99851.06
2022-09-10T02:02:09.034Z,99906.28
2022-09-10T02:04:36.552Z,99900.25
2022-09-10T02:07:05.118Z,99904.75
2022-09-10T02:09:32.922Z,99904.88
2022-09-10T02:12:02.318Z,99901.94
2022-09-10T02:14:29.993Z,99899.38
2022-09-10T02:16:59.780Z,99839.38
2022-09-10T02:19:27.594Z,99896.25
2022-09-10T02:21:56.169Z,99893.03
2022-09-10T02:24:23.892Z,99893.84
2022-09-10T02:26:51.594Z,99898.94
2022-09-10T02:29:19.455Z,99897.84
2022-09-10T02:31:47.482Z,99900.38
2022-09-10T02:34:16.895Z,99891.03
2022-09-10T02:36:44.562Z,99894.56
2022-09-10T02:39:12.226Z,99890.22
2022-09-10T02:41:40.894Z,99891.31
2022-09-10T02:44:08.799Z,99892.59
2022-09-10T02:46:36.482Z,99895.00
2022-09-10T02:49:04.159Z,99894.00
2022-09-10T02:51:33.199Z,99893.03
2022-09-10T02:54:01.469Z,99893.03
2022-09-10T02:56:29.155Z,99894.72
2022-09-10T02:58:56.823Z,99883.97
2022-09-10T03:01:24.709Z,99890.78
2022-09-10T03:03:54.400Z,99892.16
2022-09-10T03:06:22.264Z,99895.97
2022-09-10T03:08:51.282Z,99897.66
2022-09-10T03:11:19.303Z,99856.56
2022-09-10T03:13:47.987Z,99839.16
2022-09-10T03:16:15.878Z,99883.13
2022-09-10T03:18:43.742Z,99890.06
2022-09-10T03:21:13.157Z,99890.19
2022-09-10T03:23:40.949Z,99893.00
2022-09-10T03:26:10.724Z,99890.63
2022-09-10T03:28:38.736Z,99889.63
2022-09-10T03:31:06.647Z,99894.28
2022-09-10T03:33:34.423Z,99894.16
2022-09-10T03:36:02.712Z,99896.25
2022-09-10T03:38:30.560Z,99891.31
2022-09-10T03:40:58.675Z,99895.13
2022-09-10T03:43:27.695Z,99897.81
2022-09-10T03:45:55.423Z,99893.13
2022-09-10T03:48:23.147Z,99813.59
2022-09-10T03:50:51.293Z,99895.28
2022-09-10T03:53:19.618Z,99893.81
2022-09-10T03:55:47.807Z,99897.50
2022-09-10T03:58:15.644Z,99851.69
2022-09-10T04:00:46.204Z,99893.69
2022-09-10T04:03:14.370Z,99895.41
2022-09-10T04:05:43.602Z,99902.03
2022-09-10T04:08:11.380Z,99903.19
2022-09-10T04:10:39.335Z,99903.59
2022-09-10T04:13:07.163Z,99902.44
2022-09-10T04:15:34.822Z,99894.66
2022-09-10T04:18:03.987Z,99911.63
2022-09-10T04:20:31.658Z,99911.78
2022-09-10T04:22:59.354Z,99907.22
2022-09-10T04:25:27.119Z,99909.50
2022-09-10T04:27:54.848Z,99911.06
2022-09-10T04:30:23.289Z,99912.75
2022-09-10T04:32:52.404Z,99914.59
2022-09-10T04:35:21.579Z,99913.00
2022-09-10T04:37:49.303Z,99919.50
2022-09-10T04:40:17.069Z,99921.47
2022-09-10T04:42:44.769Z,99924.59
2022-09-10T04:45:12.931Z,99922.91
2022-09-10T04:47:40.800Z,99925.47
2022-09-10T04:50:09.690Z,99923.88
2022-09-10T04:52:38.860Z,99925.59
2022-09-10T04:55:07.948Z,99929.38
2022-09-10T04:57:36.084Z,99932.06
2022-09-10T05:00:05.542Z,99930.38
2022-09-10T05:02:33.319Z,99932.19
2022-09-10T05:05:00.988Z,99926.84
2022-09-10T05:07:28.662Z,99928.81
2022-09-10T05:09:57.666Z,99930.75
2022-09-10T05:12:25.421Z,99928.22
2022-09-10T05:14:53.083Z,99933.56
2022-09-10T05:17:20.813Z,99926.38
2022-09-10T05:19:48.485Z,99925.38
2022-09-10T05:22:16.273Z,99928.22
2022-09-10T05:24:44.164Z,99926.38
2022-09-10T05:27:13.231Z,99928.22
2022-09-10T05:29:40.918Z,99931.03
2022-09-10T05:32:09.459Z,99932.03
2022-09-10T05:34:39.758Z,99929.34
2022-09-10T05:37:08.777Z,99925.78
2022-09-10T05:39:36.490Z,99930.16
2022-09-10T05:42:04.374Z,99909.25
2022-09-10T05:44:33.403Z,99936.25
2022-09-10T05:47:01.362Z,99933.69
2022-09-10T05:49:30.348Z,99931.03
2022-09-10T05:51:58.114Z,99930.16
2022-09-10T05:54:25.844Z,99921.97
2022-09-10T05:56:54.144Z,99927.47
2022-09-10T05:59:21.820Z,99927.63
2022-09-10T06:01:51.448Z,99930.75
2022-09-10T06:04:19.791Z,99930.03
2022-09-10T06:06:47.860Z,99927.34
2022-09-10T06:09:15.546Z,99931.38
2022-09-10T06:11:43.342Z,99920.22
2022-09-10T06:14:10.991Z,99927.56
2022-09-10T06:16:38.742Z,99925.59
2022-09-10T06:19:08.366Z,99922.63
2022-09-10T06:21:36.088Z,99931.09
2022-09-10T06:24:03.946Z,99920.66
2022-09-10T06:26:31.678Z,99922.19
2022-09-10T06:28:59.734Z,99928.00
2022-09-10T06:31:27.692Z,99925.19
2022-09-10T06:33:55.387Z,99920.66
2022-09-10T06:36:24.447Z,99926.59
2022-09-10T06:38:53.351Z,99926.44
2022-09-10T06:41:21.052Z,99921.94
2022-09-10T06:43:48.780Z,99932.41
2022-09-10T06:46:50.763Z,99930.25
2022-09-10T06:49:05.255Z,99932.25
2022-09-10T06:51:34.346Z,99931.00
2022-09-10T06:54:02.843Z,99926.91
2022-09-10T06:56:30.763Z,99933.66
2022-09-10T06:59:02.211Z,99943.53
2022-09-10T07:01:30.611Z,99897.06
2022-09-10T07:03:59.436Z,99933.66
2022-09-10T07:06:27.544Z,99934.53
2022-09-10T07:08:56.889Z,99938.03
2022-09-10T07:11:25.006Z,99902.13
2022-09-10T07:13:53.218Z,99948.63
2022-09-10T07:16:20.971Z,99921.09
2022-09-10T07:18:50.056Z,99925.00
2022-09-10T07:21:17.863Z,99949.63
2022-09-10T07:23:47.154Z,99953.16
2022-09-10T07:26:16.909Z,99942.09
2022-09-10T07:28:44.769Z,99959.09
2022-09-10T07:31:16.688Z,99887.00
2022-09-10T07:33:44.662Z,99908.31
2022-09-10T07:36:12.615Z,99953.41
2022-09-10T07:38:40.731Z,99923.56
2022-09-10T07:41:10.142Z,99929.66
2022-09-10T07:43:39.933Z,99968.94
2022-09-10T07:46:07.904Z,99964.16
2022-09-10T07:48:35.663Z,99966.84
2022-09-10T07:51:04.316Z,99900.66
2022-09-10T07:53:32.012Z,99968.53
2022-09-10T07:56:01.794Z,99967.53
2022-09-10T07:58:31.710Z,99970.38
2022-09-10T08:01:01.078Z,99972.91
2022-09-10T08:03:28.902Z,99951.88
2022-09-10T08:05:56.643Z,99980.00
2022-09-10T08:08:24.711Z,99982.53
2022-09-10T08:10:53.643Z,99978.00
2022-09-10T08:13:22.659Z,99986.03
2022-09-10T08:15:51.721Z,99979.72
2022-09-10T08:18:20.775Z,99968.38
2022-09-10T08:20:55.046Z,99995.09
2022-09-10T08:23:23.202Z,99996.63
2022-09-10T08:25:52.231Z,99993.94
2022-09-10T08:28:25.371Z,99905.84
2022-09-10T08:30:58.161Z,100000.91
2022-09-10T08:33:27.326Z,100000.91
2022-09-10T08:35:57.193Z,99943.31
2022-09-10T08:38:26.247Z,100002.59
2022-09-10T08:40:54.436Z,100006.97
2022-09-10T08:43:28.151Z,100010.34
2022-09-10T08:45:55.890Z,100005.13
2022-09-10T08:48:24.075Z,100006.00
2022-09-10T08:50:54.643Z,100012.78
2022-09-10T08:53:26.288Z,100011.63
2022-09-10T08:55:57.411Z,100009.94
2022-09-10T08:58:26.518Z,100016.16
2022-09-10T09:00:54.926Z,100010.81
2022-09-10T09:03:23.963Z,99950.81
2022-09-10T09:05:55.590Z,100014.44
2022-09-10T09:08:25.794Z,99962.44
2022-09-10T09:10:55.329Z,100017.00
2022-09-10T09:13:33.114Z,99992.69
2022-09-10T09:16:19.475Z,99982.81
2022-09-10T09:18:57.300Z,99950.81
2022-09-10T09:21:28.770Z,100012.34
2022-09-10T09:24:12.817Z,99963.28
2022-09-10T09:26:41.414Z,100016.72
2022-09-10T09:29:13.142Z,100016.59
2022-09-10T09:31:42.620Z,100021.13
2022-09-10T09:34:14.298Z,99974.72
2022-09-10T09:36:46.178Z,100024.91
2022-09-10T09:39:16.874Z,100022.94
2022-09-10T09:41:49.909Z,99981.38
2022-09-10T09:44:19.433Z,99960.19
2022-09-10T09:46:47.142Z,100034.81
2022-09-10T09:49:16.221Z,100033.84
2022-09-10T09:51:45.763Z,100031.44
2022-09-10T09:54:56.630Z,100033.13
2022-09-10T09:57:05.904Z,99990.28
2022-09-10T09:59:34.744Z,100041.72
2022-09-10T10:02:06.494Z,100046.09
2022-09-10T10:04:36.209Z,100035.38
2022-09-10T10:07:08.035Z,100029.31
2022-09-10T10:09:38.535Z,100026.50
2022-09-10T10:12:06.557Z,100004.81
2022-09-10T10:14:38.168Z,100026.03
2022-09-10T10:17:26.846Z,99947.97
2022-09-10T10:19:59.690Z,100012.50
2022-09-10T10:22:30.191Z,99972.50
2022-09-10T10:24:57.905Z,99940.81
2022-09-10T10:27:32.828Z,99972.91
2022-09-10T10:30:02.581Z,100004.47
2022-09-10T10:32:39.482Z,100012.53
2022-09-10T10:35:19.099Z,100008.56
2022-09-10T10:37:52.317Z,100006.88
2022-09-10T10:40:23.156Z,100005.31
2022-09-10T10:42:52.028Z,100002.63
2022-09-10T10:45:31.190Z,100006.03
2022-09-10T10:48:04.310Z,100007.00
2022-09-10T10:50:35.212Z,100002.63
2022-09-10T10:53:18.529Z,100000.78
2022-09-10T10:55:50.352Z,99999.94
2022-09-10T10:58:28.934Z,100000.38
2022-09-10T11:00:58.426Z,99981.44
2022-09-10T11:03:27.329Z,99939.63
2022-09-10T11:05:57.117Z,99995.16
2022-09-10T11:08:28.236Z,99994.88
2022-09-10T11:10:58.687Z,99992.88
2022-09-10T11:13:27.347Z,99999.84
2022-09-10T11:15:59.376Z,99989.94
2022-09-10T11:18:29.333Z,99983.88
2022-09-10T11:21:00.162Z,99983.75
2022-09-10T11:23:31.187Z,99982.63
2022-09-10T11:26:02.419Z,99974.59
2022-09-10T11:28:31.647Z,99934.81
2022-09-10T11:31:01.986Z,99981.50
2022-09-10T11:33:32.267Z,99990.28
2022-09-10T11:36:03.775Z,99920.72
2022-09-10T11:38:36.872Z,99948.53
2022-09-10T11:41:10.400Z,99945.69
2022-09-10T11:43:41.253Z,99953.75
2022-09-10T11:46:10.951Z,99893.88
2022-09-10T11:48:40.944Z,99986.00
2022-09-10T11:51:09.090Z,99982.78
2022-09-10T11:53:38.086Z,99977.41
2022-09-10T11:56:30.796Z,99909.53
2022-09-10T11:59:09.221Z,99981.06
2022-09-10T12:01:49.156Z,99906.03
2022-09-10T12:04:31.031Z,99929.88
2022-09-10T12:07:02.646Z,99926.94
2022-09-10T12:09:34.749Z,99980.38
2022-09-10T12:12:04.982Z,99984.03
2022-09-10T12:14:32.656Z,99984.03
2022-09-10T12:17:02.569Z,99965.63
2022-09-10T12:19:31.447Z,99987.72
2022-09-10T12:21:59.860Z,99979.19
2022-09-10T12:24:31.958Z,99972.69
2022-09-10T12:27:00.265Z,99994.06
2022-09-10T12:29:30.548Z,99945.84
2022-09-10T12:32:26.877Z,99989.69
2022-09-10T12:35:27.768Z,99989.69
2022-09-10T12:38:28.603Z,99989.69
2022-09-10T12:40:57.635Z,99980.03
2022-09-10T12:43:54.376Z,99985.31
2022-09-10T12:46:25.670Z,99985.41
2022-09-10T12:49:06.681Z,99994.22
2022-09-10T12:51:38.431Z,99952.34
2022-09-10T12:54:22.438Z,99949.22
2022-09-10T12:57:12.762Z,99993.06
2022-09-10T12:59:57.140Z,99989.41
2022-09-10T13:02:29.890Z,99982.91
2022-09-10T13:04:59.144Z,99977.41
2022-09-10T13:07:28.963Z,99961.16
2022-09-10T13:10:01.412Z,99943.16
2022-09-10T13:12:32.748Z,99983.19
2022-09-10T13:15:01.874Z,99974.97
2022-09-10T13:17:41.157Z,99948.44
2022-09-10T13:20:16.531Z,99974.56
2022-09-10T13:23:04.223Z,99978.69
2022-09-10T13:25:42.798Z,99940.38
2022-09-10T13:28:47.803Z,99974.69
2022-09-10T13:31:21.788Z,99977.38
2022-09-10T13:34:01.859Z,99981.06
2022-09-10T13:36:29.789Z,99975.69
2022-09-10T13:39:25.003Z,99975.56
2022-09-10T13:42:05.867Z,99979.06
2022-09-10T13:44:47.617Z,99955.94
2022-09-10T13:47:17.953Z,99981.75
2022-09-10T13:49:50.462Z,99898.41
2022-09-10T13:52:19.100Z,99949.28
2022-09-10T13:54:48.011Z,99931.88
2022-09-10T13:57:22.392Z,99951.41
2022-09-10T13:59:51.276Z,99992.78
2022-09-10T14:02:21.504Z,99981.66
2022-09-10T14:04:49.465Z,99990.09
2022-09-10T14:07:20.312Z,99987.56
2022-09-10T14:09:49.026Z,99935.97
2022-09-10T14:12:16.762Z,99990.97
2022-09-10T14:14:45.527Z,99992.50
2022-09-10T14:17:14.454Z,99989.13
2022-09-10T14:19:47.738Z,99994.50
2022-09-10T14:22:17.172Z,99991.97
2022-09-10T14:24:49.726Z,99993.78
2022-09-10T14:27:18.521Z,99949.41
2022-09-10T14:29:46.830Z,99988.56
2022-09-10T14:32:31.691Z,99983.19
2022-09-10T14:35:03.604Z,99976.97
2022-09-10T14:37:38.084Z,99976.97
2022-09-10T14:40:07.941Z,99967.34
2022-09-10T14:42:36.115Z,99919.44
2022-09-10T14:45:04.010Z,99978.97
2022-09-10T14:47:35.024Z,99972.72
2022-09-10T14:50:28.283Z,99979.78
2022-09-10T14:52:56.027Z,99975.41
2022-09-10T14:55:25.258Z,99954.94
2022-09-10T14:57:53.189Z,99939.91
2022-09-10T15:00:20.993Z,99971.88
2022-09-10T15:02:50.545Z,99973.59
2022-09-10T15:05:18.453Z,99973.44
2022-09-10T15:07:48.288Z,99982.19
2022-09-10T15:10:17.107Z,99975.00
2022-09-10T15:12:46.970Z,99979.22
2022-09-10T15:15:17.434Z,99972.03
2022-09-10T15:17:45.354Z,99973.69
2022-09-10T15:20:14.445Z,99972.72
2022-09-10T15:22:42.091Z,99969.03
2022-09-10T15:25:18.602Z,99964.38
2022-09-10T15:27:46.283Z,99967.06
2022-09-10T15:30:14.088Z,99972.44
2022-09-10T15:32:41.760Z,99974.28
2022-09-10T15:35:09.805Z,99976.97
2022-09-10T15:37:37.732Z,99974.13
2022-09-10T15:40:06.050Z,99973.13
2022-09-10T15:42:35.105Z,99974.00
2022-09-10T15:45:02.787Z,99978.94
2022-09-10T15:47:33.434Z,99954.91
2022-09-10T15:50:01.158Z,99974.56
2022-09-10T15:52:28.838Z,99980.91
2022-09-10T15:54:56.634Z,99973.56
2022-09-10T15:57:24.315Z,99971.44
2022-09-10T15:59:53.491Z,99985.69
2022-09-10T16:02:21.202Z,99989.97
2022-09-10T16:04:49.147Z,99978.66
2022-09-10T16:07:16.804Z,99988.25
2022-09-10T16:12:06.575Z,99986.84
2022-09-10T16:14:34.504Z,99982.63
2022-09-10T16:17:10.277Z,99987.84
2022-09-10T16:19:38.040Z,99994.03
2022-09-10T16:22:05.802Z,99997.88
2022-09-10T16:24:33.474Z,100001.44
2022-09-10T16:27:01.206Z,99996.19
2022-09-10T16:29:29.465Z,100000.56
2022-09-10T16:31:57.385Z,100002.38
2022-09-10T16:34:26.383Z,100003.25
2022-09-10T16:36:54.079Z,99999.72
2022-09-10T16:39:22.143Z,100006.09
2022-09-10T16:41:50.791Z,100009.63
2022-09-10T16:44:19.160Z,100006.94
2022-09-10T16:46:47.437Z,100010.59
2022-09-10T16:49:15.230Z,100013.13
2022-09-10T16:51:44.931Z,100002.97
2022-09-10T16:54:13.854Z,100013.13
2022-09-10T16:56:42.397Z,100010.06
2022-09-10T16:59:14.868Z,100025.03
2022-09-10T17:01:43.819Z,100018.78
2022-09-10T17:04:18.551Z,100011.75
2022-09-10T17:06:48.402Z,100012.31
2022-09-10T17:09:16.285Z,99943.16
2022-09-10T17:11:43.960Z,100018.53
2022-09-10T17:14:12.416Z,100010.63
2022-09-10T17:16:40.877Z,99921.09
2022-09-10T17:19:10.913Z,99960.28
2022-09-10T17:21:38.691Z,100020.06
2022-09-10T17:24:09.124Z,99943.56
2022-09-10T17:26:37.281Z,100017.38
2022-09-10T17:29:06.225Z,100025.28
2022-09-10T17:31:33.983Z,100003.25
2022-09-10T17:34:01.922Z,99994.75
2022-09-10T17:36:30.628Z,100036.03
2022-09-10T17:38:59.188Z,100023.59
2022-09-10T17:41:28.588Z,100032.38
2022-09-10T17:43:56.595Z,100031.66
2022-09-10T17:46:24.378Z,100034.34
2022-09-10T17:48:52.633Z,100027.44
2022-09-10T17:51:22.794Z,100026.56
2022-09-10T17:53:50.564Z,100038.31
2022-09-10T17:56:19.924Z,100041.84
2022-09-10T17:58:49.045Z,100043.69
2022-09-10T18:01:23.134Z,100030.25
2022-09-10T18:03:51.388Z,99985.09
2022-09-10T18:06:19.084Z,100059.22
2022-09-10T18:08:46.752Z,100064.59
2022-09-10T18:11:16.376Z,100070.97
2022-09-10T18:13:44.812Z,100076.47
2022-09-10T18:16:16.162Z,100073.06
2022-09-10T18:18:45.561Z,100083.81
2022-09-10T18:21:14.646Z,100085.78
2022-09-10T18:23:44.304Z,100086.06
2022-09-10T18:26:13.728Z,100093.97
2022-09-10T18:28:41.474Z,100091.41
2022-09-10T18:31:09.731Z,100100.47
2022-09-10T18:33:39.283Z,100104.84
2022-09-10T18:36:14.332Z,100095.63
2022-09-10T18:38:42.084Z,100106.13
2022-09-10T18:41:18.206Z,100113.16
2022-09-10T18:43:46.061Z,100107.81
2022-09-10T18:46:13.828Z,100048.91
2022-09-10T18:48:43.825Z,100119.41
2022-09-10T18:51:12.919Z,100119.53
2022-09-10T18:53:40.825Z,100122.31
2022-09-10T18:56:09.976Z,100126.00
2022-09-10T18:58:37.746Z,100112.00
2022-09-10T19:01:06.588Z,100126.97
2022-09-10T19:03:38.593Z,100093.31
2022-09-10T19:06:09.201Z,100127.84
2022-09-10T19:08:37.306Z,100132.34
2022-09-10T19:11:05.388Z,100129.78
2022-09-10T19:13:33.518Z,100137.84
2022-09-10T19:16:01.902Z,100144.22
2022-09-10T19:18:30.069Z,100053.22
2022-09-10T19:20:57.847Z,100153.25
2022-09-10T19:23:26.908Z,100154.22
2022-09-10T19:25:54.839Z,100105.00
2022-09-10T19:28:22.500Z,100146.19
2022-09-10T19:30:51.967Z,100154.38
2022-09-10T19:33:20.951Z,100151.81
2022-09-10T19:35:50.163Z,100160.88
2022-09-10T19:38:36.531Z,100156.34
2022-09-10T19:41:07.202Z,100162.69
2022-09-10T19:43:36.257Z,100157.44
2022-09-10T19:46:04.164Z,100163.81
2022-09-10T19:48:32.017Z,100168.31
2022-09-10T19:51:01.136Z,100172.13
2022-09-10T19:53:30.452Z,100171.88
2022-09-10T19:56:03.830Z,100106.88
2022-09-10T19:58:32.902Z,100180.06
2022-09-10T20:01:00.732Z,100179.19
2022-09-10T20:03:28.399Z,100179.47
2022-09-10T20:05:56.095Z,100181.88
2022-09-10T20:08:24.156Z,100185.69
2022-09-10T20:10:52.481Z,100183.75
2022-09-10T20:13:20.577Z,100185.56
2022-09-10T20:15:50.158Z,100183.16
2022-09-10T20:18:17.958Z,100179.47
2022-09-10T20:20:46.709Z,100181.31
2022-09-10T20:23:14.609Z,100176.09
2022-09-10T20:25:43.255Z,100175.22
2022-09-10T20:28:12.897Z,100182.41
2022-09-10T20:30:40.895Z,100184.28
2022-09-10T20:33:09.921Z,100185.09
2022-09-10T20:35:37.610Z,100185.25
2022-09-10T20:38:05.268Z,100188.91
2022-09-10T20:40:32.956Z,100186.22
2022-09-10T20:43:00.618Z,100190.75
2022-09-10T20:45:28.334Z,100192.47
2022-09-10T20:47:56.071Z,100194.28
2022-09-10T20:50:25.503Z,100190.75
2022-09-10T20:52:53.171Z,100190.75
2022-09-10T20:55:20.868Z,100197.09
2022-09-10T20:57:48.760Z,100206.16
2022-09-10T21:00:16.824Z,100197.97
2022-09-10T21:02:44.925Z,100204.28
2022-09-10T21:05:13.882Z,100197.22
2022-09-10T21:07:42.880Z,100204.44
2022-09-10T21:10:11.014Z,100198.22
2022-09-10T21:12:38.679Z,100201.75
2022-09-10T21:15:07.137Z,100205.41
2022-09-10T21:17:35.460Z,100211.78
2022-09-10T21:20:04.107Z,100205.69
2022-09-10T21:22:31.880Z,100212.59
2022-09-10T21:25:00.906Z,100203.25
2022-09-10T21:27:29.175Z,100212.03
2022-09-10T21:29:56.851Z,100214.72
2022-09-10T21:32:24.529Z,100219.09
2022-09-10T21:34:52.233Z,100206.69
2022-09-10T21:37:19.884Z,100196.91
2022-09-10T21:39:47.652Z,100204.13
2022-09-10T21:42:16.718Z,100198.91
2022-09-10T21:44:44.403Z,100195.50
2022-09-10T21:47:12.100Z,100200.00
2022-09-10T21:49:39.821Z,100200.84
2022-09-10T21:52:08.362Z,100201.84
2022-09-10T21:54:36.563Z,100200.97
2022-09-10T21:57:05.887Z,100208.16
2022-09-10T21:59:34.929Z,100211.84
2022-09-10T22:02:04.292Z,100220.88
2022-09-10T22:04:32.063Z,100217.34
2022-09-10T22:06:59.717Z,100222.59
2022-09-10T22:09:27.407Z,100230.63
2022-09-10T22:11:59.205Z,100234.44
2022-09-10T22:14:26.891Z,100238.94
2022-09-10T22:16:55.916Z,100242.47
2022-09-10T22:19:24.304Z,100238.81
2022-09-10T22:21:53.962Z,100201.06
2022-09-10T22:24:22.245Z,100248.94
2022-09-10T22:26:49.977Z,100248.81
2022-09-10T22:29:18.499Z,100240.75
2022-09-10T22:31:46.347Z,100252.63
2022-09-10T22:34:15.955Z,100243.56
2022-09-10T22:36:44.469Z,100246.38
2022-09-10T22:39:12.860Z,100164.59
2022-09-10T22:41:40.782Z,100186.97
2022-09-10T22:44:08.467Z,100251.06
2022-09-10T22:46:36.309Z,100254.56
2022-09-10T22:49:04.223Z,100178.25
2022-09-10T22:51:35.230Z,100179.25
2022-09-10T22:54:03.368Z,100186.03
2022-09-10T22:56:31.078Z,100267.97
2022-09-10T22:58:59.528Z,100260.31
2022-09-10T23:01:28.677Z,100234.25
2022-09-10T23:03:57.381Z,100213.84
2022-09-10T23:06:25.390Z,100218.81
2022-09-10T23:08:56.189Z,100282.66
2022-09-10T23:11:24.766Z,100284.47
2022-09-10T23:13:53.508Z,100293.63
2022-09-10T23:16:22.461Z,100238.88
2022-09-10T23:18:51.595Z,100228.81
2022-09-10T23:21:19.367Z,100293.63
2022-09-10T23:23:47.703Z,100297.31
2022-09-10T23:26:17.274Z,100297.31
2022-09-10T23:28:45.062Z,100301.81
2022-09-10T23:31:14.318Z,100300.94
2022-09-10T23:33:42.566Z,100288.41
2022-09-10T23:36:11.671Z,100293.78
2022-09-10T23:38:39.810Z,100293.91
2022-09-10T23:41:08.634Z,100303.75
2022-09-10T23:43:37.641Z,100304.63
2022-09-10T23:46:05.446Z,100307.56
2022-09-10T23:48:33.152Z,100306.56
2022-09-10T23:51:01.436Z,100308.44
2022-09-10T23:53:29.232Z,100250.19
2022-09-10T23:55:56.962Z,100303.19
2022-09-10T23:58:24.622Z,100311.25
